Time;durP1;ratioP1;P1;durP2;ratioP2;P2;SDS_P1;SDS_P2;PMS_P1;PMS_P2;Temp;Humidity;BMP_temperature;BMP_pressure;BME280_temperature;BME280_humidity;BME280_pressure;Samples;Min_cycle;Max_cycle;Signal;HPM_P1;HPM_P2
2023/03/22 00:00:35;;;;;;;9.40;5.07;;;;;;;;;;5051322;28;20040;-60
2023/03/22 00:03:00;;;;;;;10.95;5.57;;;;;;;;;;5064184;28;20028;-59
2023/03/22 00:05:26;;;;;;;9.07;4.60;;;;;;;;;;5070509;28;20041;-59
2023/03/22 00:07:53;;;;;;;7.93;4.80;;;;;;;;;;5056376;28;20058;-59
2023/03/22 00:10:19;;;;;;;9.07;4.63;;;;;;;;;;5052755;28;20151;-61
2023/03/22 00:12:45;;;;;;;8.52;4.63;;;;;;;;;;5063376;28;20040;-59
2023/03/22 00:15:11;;;;;;;9.25;4.55;;;;;;;;;;5069068;28;20039;-59
2023/03/22 00:17:37;;;;;;;9.10;4.50;;;;;;;;;;5068640;28;20112;-59
2023/03/22 00:20:05;;;;;;;11.63;4.70;;;;;;;;;;5065976;28;20032;-60
2023/03/22 00:22:31;;;;;;;7.95;5.10;;;;;;;;;;5067436;28;20124;-61
2023/03/22 00:24:56;;;;;;;8.88;5.35;;;;;;;;;;5070483;28;20119;-61
2023/03/22 00:27:22;;;;;;;7.55;4.78;;;;;;;;;;5060436;28;20108;-60
2023/03/22 00:29:47;;;;;;;8.70;4.97;;;;;;;;;;5055691;28;20052;-61
2023/03/22 00:32:12;;;;;;;8.35;5.15;;;;;;;;;;5058385;28;20481;-60
2023/03/22 00:34:38;;;;;;;9.32;5.00;;;;;;;;;;5054359;28;20021;-60
2023/03/22 00:37:03;;;;;;;10.05;5.35;;;;;;;;;;5072932;28;20727;-60
2023/03/22 00:39:29;;;;;;;9.07;5.05;;;;;;;;;;5054318;28;20033;-61
2023/03/22 00:41:54;;;;;;;10.07;5.28;;;;;;;;;;5074496;28;20109;-60
2023/03/22 00:44:20;;;;;;;9.57;5.35;;;;;;;;;;5073519;28;20035;-61
2023/03/22 00:46:45;;;;;;;9.73;5.72;;;;;;;;;;5073515;28;20032;-61
2023/03/22 00:49:11;;;;;;;9.02;5.13;;;;;;;;;;5074349;28;20024;-60
2023/03/22 00:51:36;;;;;;;9.75;5.30;;;;;;;;;;5074596;28;20025;-60
2023/03/22 00:54:02;;;;;;;12.13;6.03;;;;;;;;;;5073678;28;20190;-60
2023/03/22 00:56:27;;;;;;;9.57;5.72;;;;;;;;;;5074007;28;20032;-60
2023/03/22 00:58:53;;;;;;;9.73;5.18;;;;;;;;;;5073053;28;20028;-60
2023/03/22 01:01:19;;;;;;;8.40;5.22;;;;;;;;;;5074066;28;20033;-59
2023/03/22 01:03:48;;;;;;;14.88;9.05;;;;;;;;;;5073314;28;20033;-61
2023/03/22 01:06:14;;;;;;;11.45;6.95;;;;;;;;;;5074677;28;20485;-59
2023/03/22 01:08:39;;;;;;;9.98;5.57;;;;;;;;;;5073993;28;20052;-60
2023/03/22 01:11:06;;;;;;;10.45;5.63;;;;;;;;;;5074190;28;20031;-59
2023/03/22 01:13:31;;;;;;;11.50;5.53;;;;;;;;;;5073920;28;20037;-59
2023/03/22 01:15:57;;;;;;;11.68;5.88;;;;;;;;;;5070049;28;20024;-59
2023/03/22 01:18:22;;;;;;;12.30;6.00;;;;;;;;;;5068471;28;20036;-59
2023/03/22 01:20:47;;;;;;;13.63;5.57;;;;;;;;;;5072384;28;20060;-60
2023/03/22 01:23:13;;;;;;;9.07;5.40;;;;;;;;;;5074755;28;20032;-59
2023/03/22 01:25:38;;;;;;;9.15;5.50;;;;;;;;;;5073814;28;20078;-60
2023/03/22 01:28:05;;;;;;;11.98;5.75;;;;;;;;;;5056334;28;20085;-59
2023/03/22 01:30:31;;;;;;;10.38;5.72;;;;;;;;;;5074802;28;20035;-60
2023/03/22 01:32:56;;;;;;;10.40;5.68;;;;;;;;;;5072915;28;20040;-60
2023/03/22 01:35:22;;;;;;;8.80;5.32;;;;;;;;;;5072152;28;20051;-59
2023/03/22 01:37:47;;;;;;;11.45;5.82;;;;;;;;;;5069412;28;20473;-60
2023/03/22 01:40:14;;;;;;;9.65;5.85;;;;;;;;;;5054250;28;20091;-59
2023/03/22 01:42:40;;;;;;;8.55;5.50;;;;;;;;;;5071831;28;20029;-59
2023/03/22 01:45:15;;;;;;;10.13;5.90;;;;;;;;;;5072572;28;20136;-60
2023/03/22 01:47:53;;;;;;;8.80;6.00;;;;;;;;;;5062391;28;20538;-59
2023/03/22 01:50:19;;;;;;;14.15;6.03;;;;;;;;;;5073732;28;20025;-60
2023/03/22 01:52:44;;;;;;;12.40;6.07;;;;;;;;;;5072466;28;20037;-59
2023/03/22 01:55:10;;;;;;;10.98;5.70;;;;;;;;;;5073090;28;20074;-59
2023/03/22 01:57:37;;;;;;;11.73;6.30;;;;;;;;;;5054219;28;20037;-60
2023/03/22 02:00:17;;;;;;;11.05;6.22;;;;;;;;;;5066192;28;20032;-59
2023/03/22 02:02:46;;;;;;;11.15;6.07;;;;;;;;;;5074222;28;20085;-59
2023/03/22 02:05:12;;;;;;;10.02;6.03;;;;;;;;;;5072997;28;20101;-59
2023/03/22 02:07:39;;;;;;;10.52;6.30;;;;;;;;;;5072220;28;20273;-59
2023/03/22 02:10:15;;;;;;;11.75;6.75;;;;;;;;;;5065983;28;20040;-59
2023/03/22 02:13:08;;;;;;;11.15;6.60;;;;;;;;;;5073152;28;20036;-59
2023/03/22 02:15:46;;;;;;;13.05;6.15;;;;;;;;;;5074018;28;20105;-59
2023/03/22 02:18:43;;;;;;;10.77;6.45;;;;;;;;;;5072218;28;20045;-59
2023/03/22 02:21:08;;;;;;;11.55;6.63;;;;;;;;;;5071664;28;20685;-59
2023/03/22 02:23:47;;;;;;;11.15;6.53;;;;;;;;;;5073817;28;20112;-59
2023/03/22 02:26:21;;;;;;;11.35;6.60;;;;;;;;;;5059221;28;20033;-59
2023/03/22 02:28:55;;;;;;;12.30;6.68;;;;;;;;;;5053663;28;20037;-59
2023/03/22 02:31:25;;;;;;;12.48;6.55;;;;;;;;;;5069804;28;20465;-59
2023/03/22 02:34:22;;;;;;;11.50;6.38;;;;;;;;;;5070353;28;20464;-60
2023/03/22 02:37:06;;;;;;;11.32;6.43;;;;;;;;;;5053375;28;20067;-59
2023/03/22 02:39:52;;;;;;;12.35;6.68;;;;;;;;;;5053107;28;20037;-60
2023/03/22 02:42:51;;;;;;;12.32;6.72;;;;;;;;;;5057089;28;20071;-59
2023/03/22 02:45:23;;;;;;;11.27;6.70;;;;;;;;;;5070302;28;20090;-59
2023/03/22 02:48:00;;;;;;;11.75;7.45;;;;;;;;;;5071139;28;20040;-60
2023/03/22 02:50:36;;;;;;;9.68;6.60;;;;;;;;;;5069465;28;20082;-60
2023/03/22 02:53:14;;;;;;;11.70;7.13;;;;;;;;;;5068549;28;20466;-60
2023/03/22 02:55:55;;;;;;;11.95;6.38;;;;;;;;;;5052872;28;20025;-60
2023/03/22 02:58:24;;;;;;;12.73;6.75;;;;;;;;;;5057497;28;20028;-60
2023/03/22 03:00:54;;;;;;;11.23;6.78;;;;;;;;;;5053726;28;20557;-60
2023/03/22 03:03:23;;;;;;;11.93;7.25;;;;;;;;;;5052813;28;20040;-59
2023/03/22 03:05:54;;;;;;;12.32;6.82;;;;;;;;;;5053837;28;20052;-60
2023/03/22 03:08:21;;;;;;;11.18;6.60;;;;;;;;;;5072486;28;20032;-59
2023/03/22 03:10:47;;;;;;;12.80;7.20;;;;;;;;;;5071574;28;20025;-60
2023/03/22 03:13:15;;;;;;;10.70;7.15;;;;;;;;;;5070799;28;20033;-60
2023/03/22 03:15:45;;;;;;;13.20;7.28;;;;;;;;;;5070581;28;20082;-60
2023/03/22 03:18:31;;;;;;;14.55;7.32;;;;;;;;;;5060908;28;20032;-59
2023/03/22 03:21:18;;;;;;;15.23;7.25;;;;;;;;;;5070506;28;20040;-59
2023/03/22 03:23:50;;;;;;;11.77;7.10;;;;;;;;;;5072407;28;20024;-59
2023/03/22 03:26:48;;;;;;;13.68;6.97;;;;;;;;;;5070612;28;20036;-59
2023/03/22 03:29:39;;;;;;;16.63;7.63;;;;;;;;;;5069391;28;20052;-60
2023/03/22 03:32:11;;;;;;;12.35;6.80;;;;;;;;;;5070144;28;20062;-60
2023/03/22 03:35:00;;;;;;;14.05;7.97;;;;;;;;;;5061531;28;20078;-59
2023/03/22 03:37:43;;;;;;;13.75;7.47;;;;;;;;;;5070503;28;20036;-59
2023/03/22 03:40:12;;;;;;;12.05;6.78;;;;;;;;;;5071409;28;20075;-59
2023/03/22 03:42:44;;;;;;;11.18;6.72;;;;;;;;;;5069945;28;20074;-59
2023/03/22 03:45:11;;;;;;;14.13;7.60;;;;;;;;;;5069980;28;20024;-60
2023/03/22 03:47:37;;;;;;;13.10;7.30;;;;;;;;;;5070276;28;20028;-60
2023/03/22 03:50:03;;;;;;;12.63;7.47;;;;;;;;;;5067490;28;20124;-60
2023/03/22 03:52:28;;;;;;;13.88;7.10;;;;;;;;;;5052079;28;20071;-60
2023/03/22 03:54:54;;;;;;;12.23;7.38;;;;;;;;;;5067625;28;20064;-60
2023/03/22 03:57:19;;;;;;;11.55;7.53;;;;;;;;;;5071558;28;20046;-60
2023/03/22 03:59:45;;;;;;;11.70;7.63;;;;;;;;;;5069995;28;20035;-61
2023/03/22 04:02:11;;;;;;;12.88;7.45;;;;;;;;;;5071317;28;20032;-60
2023/03/22 04:04:37;;;;;;;13.43;7.70;;;;;;;;;;5056519;28;20063;-60
2023/03/22 04:07:04;;;;;;;13.73;7.47;;;;;;;;;;5066539;28;20064;-61
2023/03/22 04:09:33;;;;;;;12.25;7.13;;;;;;;;;;5069971;28;20033;-61
2023/03/22 04:11:58;;;;;;;12.95;8.10;;;;;;;;;;5071000;28;20488;-61
2023/03/22 04:14:25;;;;;;;15.40;7.50;;;;;;;;;;5069930;28;20028;-60
2023/03/22 04:16:51;;;;;;;12.45;6.80;;;;;;;;;;5089052;28;20387;-59
2023/03/22 04:19:17;;;;;;;14.00;6.60;;;;;;;;;;5076317;28;20174;-60
2023/03/22 04:21:42;;;;;;;13.15;7.85;;;;;;;;;;5071715;28;20491;-60
2023/03/22 04:24:09;;;;;;;15.00;6.68;;;;;;;;;;5060980;28;20037;-60
2023/03/22 04:26:35;;;;;;;17.35;7.38;;;;;;;;;;5051254;28;20047;-61
2023/03/22 04:29:01;;;;;;;10.80;7.10;;;;;;;;;;5058854;28;20107;-63
2023/03/22 04:31:31;;;;;;;12.73;7.30;;;;;;;;;;5070911;28;20036;-61
2023/03/22 04:33:56;;;;;;;11.35;6.80;;;;;;;;;;5063818;28;20047;-62
2023/03/22 04:36:23;;;;;;;11.30;6.57;;;;;;;;;;5064105;28;20033;-61
2023/03/22 04:38:50;;;;;;;11.82;6.70;;;;;;;;;;5069920;28;20378;-62
2023/03/22 04:41:16;;;;;;;11.95;6.72;;;;;;;;;;5065157;28;20091;-62
2023/03/22 04:43:45;;;;;;;14.00;6.93;;;;;;;;;;5051744;28;20025;-61
2023/03/22 04:46:11;;;;;;;14.10;7.70;;;;;;;;;;5050644;28;20111;-62
2023/03/22 04:48:39;;;;;;;12.50;7.05;;;;;;;;;;5051303;28;20405;-61
2023/03/22 04:51:06;;;;;;;13.23;7.13;;;;;;;;;;5050686;28;20032;-61
2023/03/22 04:53:37;;;;;;;10.68;6.80;;;;;;;;;;5051537;28;20037;-63
2023/03/22 04:56:05;;;;;;;15.43;6.95;;;;;;;;;;5057620;28;20032;-61
2023/03/22 04:58:32;;;;;;;12.15;6.55;;;;;;;;;;5070472;28;20118;-61
2023/03/22 05:00:58;;;;;;;12.52;6.53;;;;;;;;;;5070956;28;20059;-61
2023/03/22 05:03:24;;;;;;;13.23;6.80;;;;;;;;;;5086870;28;20404;-61
2023/03/22 05:05:57;;;;;;;11.57;6.50;;;;;;;;;;5091368;28;20147;-61
2023/03/22 05:08:24;;;;;;;11.07;6.40;;;;;;;;;;5091022;28;20483;-61
2023/03/22 05:10:51;;;;;;;11.30;5.90;;;;;;;;;;5090276;28;20036;-61
2023/03/22 05:13:17;;;;;;;11.93;6.30;;;;;;;;;;5089471;28;20119;-63
2023/03/22 05:15:43;;;;;;;11.15;6.07;;;;;;;;;;5081055;28;20029;-63
2023/03/22 05:18:08;;;;;;;10.40;5.60;;;;;;;;;;5070536;28;20032;-63
2023/03/22 05:20:35;;;;;;;11.70;6.28;;;;;;;;;;5072282;28;20033;-61
2023/03/22 05:23:01;;;;;;;11.15;5.97;;;;;;;;;;5074509;28;20060;-61
2023/03/22 05:25:27;;;;;;;14.25;5.47;;;;;;;;;;5074605;28;20028;-63
2023/03/22 05:27:53;;;;;;;9.38;5.38;;;;;;;;;;5074747;28;20033;-62
2023/03/22 05:30:19;;;;;;;11.90;5.47;;;;;;;;;;5074078;28;20033;-61
2023/03/22 05:32:44;;;;;;;11.13;5.60;;;;;;;;;;5072398;28;20028;-64
2023/03/22 05:35:10;;;;;;;11.30;5.43;;;;;;;;;;5053934;28;20457;-61
2023/03/22 05:37:37;;;;;;;8.40;5.05;;;;;;;;;;5054661;28;20037;-61
2023/03/22 05:40:04;;;;;;;10.73;5.95;;;;;;;;;;5054134;28;20071;-63
2023/03/22 05:42:30;;;;;;;9.55;5.60;;;;;;;;;;5054682;28;20128;-63
2023/03/22 05:44:55;;;;;;;9.23;5.05;;;;;;;;;;5054493;28;20461;-61
2023/03/22 05:47:21;;;;;;;9.77;5.05;;;;;;;;;;5052234;28;20025;-63
2023/03/22 05:49:46;;;;;;;10.80;5.10;;;;;;;;;;5063946;28;20025;-62
2023/03/22 05:52:12;;;;;;;11.00;5.47;;;;;;;;;;5072195;28;20029;-62
2023/03/22 05:54:37;;;;;;;13.40;5.57;;;;;;;;;;5074594;28;20036;-63
2023/03/22 05:57:03;;;;;;;8.88;4.60;;;;;;;;;;5074046;28;20475;-63
2023/03/22 05:59:28;;;;;;;11.57;5.15;;;;;;;;;;5072775;28;20035;-62
2023/03/22 06:01:54;;;;;;;12.52;5.13;;;;;;;;;;5074105;28;20020;-62
2023/03/22 06:04:19;;;;;;;10.27;4.60;;;;;;;;;;5073481;28;20063;-62
2023/03/22 06:06:45;;;;;;;8.82;3.83;;;;;;;;;;5073063;28;20036;-61
2023/03/22 06:09:13;;;;;;;10.02;4.43;;;;;;;;;;5073056;28;20465;-62
2023/03/22 06:11:38;;;;;;;9.32;4.75;;;;;;;;;;5072756;28;20047;-63
2023/03/22 06:14:04;;;;;;;9.80;4.45;;;;;;;;;;5073336;28;20028;-62
2023/03/22 06:16:29;;;;;;;11.00;4.15;;;;;;;;;;5073940;28;20024;-62
2023/03/22 06:18:54;;;;;;;8.55;3.90;;;;;;;;;;5074031;28;20036;-62
2023/03/22 06:21:20;;;;;;;8.40;4.00;;;;;;;;;;5073666;28;20404;-63
2023/03/22 06:23:45;;;;;;;7.97;4.20;;;;;;;;;;5073221;28;20024;-62
2023/03/22 06:26:11;;;;;;;9.10;3.90;;;;;;;;;;5071663;28;20025;-62
2023/03/22 06:28:36;;;;;;;5.75;3.35;;;;;;;;;;5073525;28;20066;-62
2023/03/22 06:31:09;;;;;;;8.13;4.25;;;;;;;;;;5073661;28;20032;-62
2023/03/22 06:33:35;;;;;;;10.30;4.10;;;;;;;;;;5056729;28;20457;-61
2023/03/22 06:36:02;;;;;;;10.63;4.25;;;;;;;;;;5053484;28;20028;-63
2023/03/22 06:38:28;;;;;;;8.75;4.15;;;;;;;;;;5052891;28;20033;-61
2023/03/22 06:40:54;;;;;;;10.00;4.60;;;;;;;;;;5063381;28;20575;-62
2023/03/22 06:43:20;;;;;;;9.63;4.22;;;;;;;;;;5072640;28;20060;-63
2023/03/22 06:45:46;;;;;;;11.23;4.55;;;;;;;;;;5073336;28;20377;-63
2023/03/22 06:48:12;;;;;;;6.97;3.20;;;;;;;;;;5072359;28;20124;-62
2023/03/22 06:50:38;;;;;;;6.18;3.50;;;;;;;;;;5073094;28;20444;-62
2023/03/22 06:53:04;;;;;;;8.07;3.83;;;;;;;;;;5073231;28;20028;-63
2023/03/22 06:55:33;;;;;;;7.53;3.47;;;;;;;;;;5072452;28;20043;-62
2023/03/22 06:58:02;;;;;;;6.63;3.30;;;;;;;;;;5072112;28;20117;-62
2023/03/22 07:00:28;;;;;;;11.68;3.83;;;;;;;;;;5072156;28;20025;-62
2023/03/22 07:02:53;;;;;;;8.98;3.17;;;;;;;;;;5072732;28;20032;-62
2023/03/22 07:05:19;;;;;;;6.15;3.50;;;;;;;;;;5071995;28;20468;-62
2023/03/22 07:07:45;;;;;;;7.60;3.60;;;;;;;;;;5071635;28;20033;-62
2023/03/22 07:10:11;;;;;;;8.82;3.13;;;;;;;;;;5072121;28;20032;-62
2023/03/22 07:12:37;;;;;;;8.27;3.67;;;;;;;;;;5072639;28;20496;-62
2023/03/22 07:15:03;;;;;;;8.18;3.33;;;;;;;;;;5071609;28;20124;-62
2023/03/22 07:17:28;;;;;;;9.13;2.97;;;;;;;;;;5071889;28;20032;-62
2023/03/22 07:19:54;;;;;;;8.60;3.10;;;;;;;;;;5072633;28;20029;-62
2023/03/22 07:22:21;;;;;;;9.40;3.80;;;;;;;;;;5070537;28;20039;-62
2023/03/22 07:24:47;;;;;;;8.98;3.45;;;;;;;;;;5073001;28;20061;-62
2023/03/22 07:27:13;;;;;;;6.28;2.70;;;;;;;;;;5071746;28;20491;-63
2023/03/22 07:29:38;;;;;;;8.70;3.00;;;;;;;;;;5072763;28;20115;-62
2023/03/22 07:32:04;;;;;;;6.13;2.75;;;;;;;;;;5067752;28;20100;-62
2023/03/22 07:34:30;;;;;;;5.97;3.22;;;;;;;;;;5051827;28;20457;-63
2023/03/22 07:36:58;;;;;;;8.93;3.00;;;;;;;;;;5084606;28;20057;-62
2023/03/22 07:39:23;;;;;;;8.70;3.22;;;;;;;;;;5051634;28;20021;-62
2023/03/22 07:41:49;;;;;;;4.72;2.13;;;;;;;;;;5052353;28;20102;-61
2023/03/22 07:44:15;;;;;;;9.65;2.80;;;;;;;;;;5050720;28;20547;-62
2023/03/22 07:46:41;;;;;;;8.18;3.00;;;;;;;;;;5051971;28;20083;-62
2023/03/22 07:49:06;;;;;;;5.05;2.15;;;;;;;;;;5064016;28;20485;-62
2023/03/22 07:51:32;;;;;;;5.05;2.40;;;;;;;;;;5069890;28;20106;-62
2023/03/22 07:53:57;;;;;;;7.97;2.40;;;;;;;;;;5071063;28;20032;-62
2023/03/22 07:56:22;;;;;;;3.88;1.90;;;;;;;;;;5071494;28;20059;-62
2023/03/22 07:58:48;;;;;;;11.45;2.53;;;;;;;;;;5072730;28;20122;-61
2023/03/22 08:01:13;;;;;;;6.78;2.38;;;;;;;;;;5071555;28;20032;-62
2023/03/22 08:03:39;;;;;;;8.73;2.60;;;;;;;;;;5072213;28;20028;-62
2023/03/22 08:06:06;;;;;;;10.63;2.70;;;;;;;;;;5071084;28;20543;-62
2023/03/22 08:08:35;;;;;;;8.30;2.33;;;;;;;;;;5071425;28;20113;-62
2023/03/22 08:11:02;;;;;;;6.57;2.33;;;;;;;;;;5072168;28;20068;-61
2023/03/22 08:13:27;;;;;;;5.15;2.42;;;;;;;;;;5071350;28;20066;-62
2023/03/22 08:15:53;;;;;;;5.90;2.30;;;;;;;;;;5072075;28;20111;-62
2023/03/22 08:18:18;;;;;;;5.30;1.92;;;;;;;;;;5070968;28;20036;-61
2023/03/22 08:20:46;;;;;;;5.57;2.13;;;;;;;;;;5071708;28;20499;-62
2023/03/22 08:23:15;;;;;;;5.85;2.00;;;;;;;;;;5070375;28;20024;-62
2023/03/22 08:25:42;;;;;;;8.13;2.40;;;;;;;;;;5071799;28;20028;-61
2023/03/22 08:28:08;;;;;;;12.40;2.58;;;;;;;;;;5071307;28;20380;-61
2023/03/22 08:30:33;;;;;;;6.05;2.25;;;;;;;;;;5071178;28;20029;-61
2023/03/22 08:32:59;;;;;;;4.60;2.00;;;;;;;;;;5051633;28;20048;-63
2023/03/22 08:35:24;;;;;;;5.22;2.00;;;;;;;;;;5050892;28;20079;-62
2023/03/22 08:37:54;;;;;;;4.97;1.70;;;;;;;;;;5051666;28;20037;-62
2023/03/22 08:40:19;;;;;;;3.05;1.48;;;;;;;;;;5064172;28;20427;-62
2023/03/22 08:42:45;;;;;;;3.63;1.90;;;;;;;;;;5071959;28;20028;-61
2023/03/22 08:45:10;;;;;;;4.65;1.50;;;;;;;;;;5071711;28;20158;-62
2023/03/22 08:47:36;;;;;;;5.35;1.73;;;;;;;;;;5070867;28;20461;-61
2023/03/22 08:50:01;;;;;;;3.75;1.63;;;;;;;;;;5071466;28;20350;-61
2023/03/22 08:52:27;;;;;;;10.63;1.80;;;;;;;;;;5070765;28;20381;-63
2023/03/22 08:54:53;;;;;;;2.47;1.10;;;;;;;;;;5071502;28;20469;-63
2023/03/22 08:57:20;;;;;;;5.25;1.73;;;;;;;;;;5073631;28;20056;-62
2023/03/22 08:59:46;;;;;;;2.75;1.42;;;;;;;;;;5074114;28;20127;-61
2023/03/22 09:02:11;;;;;;;3.95;1.60;;;;;;;;;;5075174;28;20485;-62
2023/03/22 09:04:37;;;;;;;6.85;1.70;;;;;;;;;;5074544;28;20137;-63
2023/03/22 09:07:02;;;;;;;5.07;1.40;;;;;;;;;;5075120;28;20032;-61
2023/03/22 09:09:28;;;;;;;5.80;1.58;;;;;;;;;;5074442;28;20040;-61
2023/03/22 09:11:53;;;;;;;3.00;1.27;;;;;;;;;;5075138;28;20127;-63
2023/03/22 09:14:18;;;;;;;5.82;1.90;;;;;;;;;;5072019;28;20035;-61
2023/03/22 09:16:44;;;;;;;4.10;1.40;;;;;;;;;;5074683;28;20029;-61
2023/03/22 09:19:10;;;;;;;2.88;1.40;;;;;;;;;;5074998;28;20036;-61
2023/03/22 09:21:36;;;;;;;2.40;1.30;;;;;;;;;;5074140;28;20621;-61
2023/03/22 09:24:01;;;;;;;2.60;1.42;;;;;;;;;;5074816;28;20473;-61
2023/03/22 09:26:27;;;;;;;3.35;1.58;;;;;;;;;;5074197;28;20048;-61
2023/03/22 09:28:52;;;;;;;5.03;1.50;;;;;;;;;;5074734;28;20094;-62
2023/03/22 09:31:18;;;;;;;3.28;1.40;;;;;;;;;;5065684;28;20028;-61
2023/03/22 09:33:43;;;;;;;4.70;1.60;;;;;;;;;;5074883;28;20369;-63
2023/03/22 09:36:10;;;;;;;5.63;1.40;;;;;;;;;;5074758;28;20105;-60
2023/03/22 09:38:37;;;;;;;5.47;1.60;;;;;;;;;;5073191;28;20411;-61
2023/03/22 09:41:11;;;;;;;5.68;2.10;;;;;;;;;;5074845;28;20039;-62
2023/03/22 09:43:48;;;;;;;10.57;2.45;;;;;;;;;;5073936;28;20033;-61
2023/03/22 09:46:19;;;;;;;6.35;1.65;;;;;;;;;;5075038;28;20036;-61
2023/03/22 09:48:45;;;;;;;;;;;;;;;;;;5073975;28;20115;-61
2023/03/22 09:51:40;;;;;;;8.75;1.70;;;;;;;;;;5074714;28;19957;-62
2023/03/22 09:54:20;;;;;;;6.50;2.08;;;;;;;;;;5105854;28;20435;-61
2023/03/22 09:56:57;;;;;;;6.45;1.83;;;;;;;;;;5074560;28;20025;-61
2023/03/22 09:59:39;;;;;;;3.05;1.45;;;;;;;;;;5073411;28;20043;-61
2023/03/22 10:02:46;;;;;;;3.58;1.40;;;;;;;;;;5074076;28;20381;-60
2023/03/22 10:05:23;;;;;;;5.68;1.48;;;;;;;;;;5054217;28;20048;-60
2023/03/22 10:08:16;;;;;;;3.85;1.42;;;;;;;;;;5052943;28;20525;-62
2023/03/22 10:10:42;;;;;;;3.58;1.50;;;;;;;;;;5053624;28;20537;-61
2023/03/22 10:13:22;;;;;;;5.10;2.08;;;;;;;;;;5054011;28;20029;-61
2023/03/22 10:15:51;;;;;;;6.07;1.60;;;;;;;;;;5086287;28;20029;-61
2023/03/22 10:18:24;;;;;;;4.00;1.83;;;;;;;;;;5053540;28;20048;-61
2023/03/22 10:20:55;;;;;;;4.15;1.38;;;;;;;;;;5055157;28;20094;-60
2023/03/22 10:23:34;;;;;;;7.32;1.70;;;;;;;;;;5072980;28;20435;-61
2023/03/22 10:26:01;;;;;;;4.18;1.35;;;;;;;;;;5073846;28;20032;-61
2023/03/22 10:28:43;;;;;;;9.65;1.92;;;;;;;;;;5072315;28;20024;-61
2023/03/22 10:31:14;;;;;;;4.57;1.42;;;;;;;;;;5073939;28;20029;-61
2023/03/22 10:34:02;;;;;;;3.40;1.48;;;;;;;;;;5071787;28;20040;-61
2023/03/22 10:36:33;;;;;;;3.10;1.17;;;;;;;;;;5072788;28;20025;-61
2023/03/22 10:39:26;;;;;;;7.63;1.83;;;;;;;;;;5072414;28;20466;-61
2023/03/22 10:41:54;;;;;;;4.75;1.60;;;;;;;;;;5073602;28;20501;-61
2023/03/22 10:44:22;;;;;;;3.72;1.40;;;;;;;;;;5072849;28;20043;-61
2023/03/22 10:46:49;;;;;;;3.10;1.63;;;;;;;;;;5072940;28;20119;-61
2023/03/22 10:49:27;;;;;;;3.90;1.42;;;;;;;;;;5073250;28;20457;-61
2023/03/22 10:51:56;;;;;;;5.03;1.52;;;;;;;;;;5072129;28;20094;-61
2023/03/22 10:54:24;;;;;;;5.00;1.55;;;;;;;;;;5072420;28;20029;-61
2023/03/22 10:56:50;;;;;;;4.18;1.77;;;;;;;;;;5071924;28;20041;-61
2023/03/22 10:59:48;;;;;;;3.08;1.40;;;;;;;;;;5072960;28;20039;-61
2023/03/22 11:02:31;;;;;;;6.60;1.48;;;;;;;;;;5073073;28;20043;-61
2023/03/22 11:05:03;;;;;;;3.88;1.30;;;;;;;;;;5072539;28;20409;-60
2023/03/22 11:07:41;;;;;;;2.60;1.33;;;;;;;;;;5071960;28;20107;-61
2023/03/22 11:10:06;;;;;;;8.95;1.60;;;;;;;;;;5072933;28;20036;-60
2023/03/22 11:12:32;;;;;;;4.18;1.60;;;;;;;;;;5071732;28;20085;-61
2023/03/22 11:14:58;;;;;;;2.97;1.40;;;;;;;;;;5072891;28;20024;-61
2023/03/22 11:17:27;;;;;;;4.45;1.42;;;;;;;;;;5072245;28;20473;-61
2023/03/22 11:20:02;;;;;;;2.72;1.45;;;;;;;;;;5072667;28;20032;-63
2023/03/22 11:22:38;;;;;;;5.55;1.52;;;;;;;;;;5072108;28;20485;-61
2023/03/22 11:25:21;;;;;;;5.65;1.60;;;;;;;;;;5072986;28;20038;-62
2023/03/22 11:27:55;;;;;;;6.80;1.60;;;;;;;;;;5071877;28;20060;-61
2023/03/22 11:30:26;;;;;;;8.63;2.50;;;;;;;;;;5057840;28;20381;-61
2023/03/22 11:33:15;;;;;;;3.35;1.30;;;;;;;;;;5052502;28;20427;-60
2023/03/22 11:35:44;;;;;;;6.25;2.17;;;;;;;;;;5051816;28;20084;-61
2023/03/22 11:38:37;;;;;;;5.68;1.50;;;;;;;;;;5052250;28;20032;-61
2023/03/22 11:41:27;;;;;;;8.75;1.80;;;;;;;;;;5052444;28;20036;-61
2023/03/22 11:43:55;;;;;;;3.77;1.40;;;;;;;;;;5052016;28;20093;-61
2023/03/22 11:46:22;;;;;;;6.75;1.75;;;;;;;;;;5057984;28;20250;-61
2023/03/22 11:48:50;;;;;;;7.65;1.65;;;;;;;;;;5071254;28;20062;-61
2023/03/22 11:51:32;;;;;;;4.95;1.70;;;;;;;;;;5072473;28;20031;-60
2023/03/22 11:54:14;;;;;;;3.40;1.60;;;;;;;;;;5072041;28;20413;-61
2023/03/22 11:56:44;;;;;;;6.68;1.63;;;;;;;;;;5071345;28;20077;-61
2023/03/22 11:59:29;;;;;;;4.60;1.70;;;;;;;;;;5071716;28;20028;-61
2023/03/22 12:02:15;;;;;;;5.97;1.90;;;;;;;;;;5071988;28;20063;-61
2023/03/22 12:04:43;;;;;;;6.18;1.50;;;;;;;;;;5069770;28;20059;-61
2023/03/22 12:07:14;;;;;;;3.38;1.70;;;;;;;;;;5072021;28;20097;-61
2023/03/22 12:09:42;;;;;;;2.65;1.42;;;;;;;;;;5071008;28;20051;-60
2023/03/22 12:12:14;;;;;;;4.38;1.65;;;;;;;;;;5071931;28;20033;-61
2023/03/22 12:15:06;;;;;;;4.60;1.52;;;;;;;;;;5069776;28;20058;-62
2023/03/22 12:17:46;;;;;;;3.55;1.40;;;;;;;;;;5070667;28;20481;-62
2023/03/22 12:20:47;;;;;;;2.33;1.45;;;;;;;;;;5066317;28;20087;-61
2023/03/22 12:23:18;;;;;;;3.33;1.40;;;;;;;;;;5051941;28;20032;-61
2023/03/22 12:25:52;;;;;;;2.78;1.10;;;;;;;;;;5050790;28;20040;-61
2023/03/22 12:28:21;;;;;;;4.38;1.40;;;;;;;;;;5051611;28;20025;-61
2023/03/22 12:30:51;;;;;;;3.85;1.50;;;;;;;;;;5050291;28;20025;-61
2023/03/22 12:33:19;;;;;;;2.60;1.25;;;;;;;;;;5051700;28;20028;-61
2023/03/22 12:35:46;;;;;;;3.40;1.38;;;;;;;;;;5056171;28;20032;-61
2023/03/22 12:38:52;;;;;;;4.10;1.30;;;;;;;;;;5070435;28;20029;-62
2023/03/22 12:41:33;;;;;;;2.83;1.50;;;;;;;;;;5068332;28;20499;-62
2023/03/22 12:44:03;;;;;;;4.13;1.50;;;;;;;;;;5071743;28;20040;-62
2023/03/22 12:46:34;;;;;;;5.07;1.60;;;;;;;;;;5071127;28;20037;-62
2023/03/22 12:49:20;;;;;;;5.80;1.58;;;;;;;;;;5071842;28;20488;-62
2023/03/22 12:51:46;;;;;;;4.13;1.40;;;;;;;;;;5071410;28;20040;-62
2023/03/22 12:54:24;;;;;;;5.15;1.92;;;;;;;;;;5069933;28;20090;-62
2023/03/22 12:56:50;;;;;;;3.58;1.30;;;;;;;;;;5071571;28;20060;-62
2023/03/22 12:59:27;;;;;;;3.50;1.20;;;;;;;;;;5072619;28;20092;-62
2023/03/22 13:02:14;;;;;;;2.30;1.20;;;;;;;;;;5072098;28;20029;-62
2023/03/22 13:04:42;;;;;;;3.13;1.30;;;;;;;;;;5071039;28;20091;-62
2023/03/22 13:07:14;;;;;;;3.53;1.20;;;;;;;;;;5071921;28;20060;-62
2023/03/22 13:09:45;;;;;;;4.55;1.58;;;;;;;;;;5069781;28;20036;-62
2023/03/22 13:12:10;;;;;;;;;;;;;;;;;;5071001;28;20087;-60
2023/03/22 13:14:47;;;;;;;1.95;1.10;;;;;;;;;;5070548;28;19912;-61
2023/03/22 13:17:32;;;;;;;4.95;1.70;;;;;;;;;;5071585;28;20032;-62
2023/03/22 13:20:22;;;;;;;1.65;1.02;;;;;;;;;;5071198;28;20029;-62
2023/03/22 13:22:47;;;;;;;1.58;0.95;;;;;;;;;;5070590;28;20075;-62
2023/03/22 13:25:17;;;;;;;3.13;1.50;;;;;;;;;;5071748;28;20064;-61
2023/03/22 13:28:02;;;;;;;5.13;1.60;;;;;;;;;;5069122;28;20079;-61
2023/03/22 13:30:34;;;;;;;2.10;1.10;;;;;;;;;;5069733;28;20087;-63
2023/03/22 13:33:08;;;;;;;5.40;1.17;;;;;;;;;;5071452;28;20100;-63
2023/03/22 13:36:02;;;;;;;1.88;1.10;;;;;;;;;;5066311;28;20025;-60
2023/03/22 13:38:38;;;;;;;2.78;1.25;;;;;;;;;;5050724;28;20385;-62
2023/03/22 13:41:08;;;;;;;3.05;1.35;;;;;;;;;;5051426;28;20029;-62
2023/03/22 13:43:49;;;;;;;4.83;1.60;;;;;;;;;;5052784;28;20035;-61
2023/03/22 13:46:18;;;;;;;3.00;1.73;;;;;;;;;;5054606;28;20029;-61
2023/03/22 13:48:46;;;;;;;7.28;1.70;;;;;;;;;;5053363;28;20029;-61
2023/03/22 13:51:21;;;;;;;4.28;1.58;;;;;;;;;;5054462;28;20029;-61
2023/03/22 13:54:04;;;;;;;3.53;1.30;;;;;;;;;;5053485;28;20036;-61
2023/03/22 13:56:32;;;;;;;2.45;1.20;;;;;;;;;;5054082;28;20397;-62
2023/03/22 13:58:58;;;;;;;3.25;1.25;;;;;;;;;;5053887;28;20123;-62
2023/03/22 14:01:36;;;;;;;4.82;1.35;;;;;;;;;;5054138;28;20083;-61
2023/03/22 14:04:09;;;;;;;3.65;1.27;;;;;;;;;;5054424;28;20087;-62
2023/03/22 14:06:46;;;;;;;3.58;1.58;;;;;;;;;;5056734;28;20033;-61
2023/03/22 14:09:26;;;;;;;5.07;1.70;;;;;;;;;;5074196;28;20075;-60
2023/03/22 14:11:58;;;;;;;3.97;1.67;;;;;;;;;;5073200;28;20024;-62
2023/03/22 14:14:30;;;;;;;3.75;1.40;;;;;;;;;;5073907;28;20256;-60
2023/03/22 14:17:16;;;;;;;4.88;1.70;;;;;;;;;;5073751;28;20104;-61
2023/03/22 14:19:42;;;;;;;3.95;1.40;;;;;;;;;;5071615;28;20384;-60
2023/03/22 14:22:14;;;;;;;5.00;1.60;;;;;;;;;;5072524;28;20029;-60
2023/03/22 14:24:40;;;;;;;4.30;1.40;;;;;;;;;;5073232;28;20117;-62
2023/03/22 14:27:07;;;;;;;4.05;1.52;;;;;;;;;;5073726;28;20032;-62
2023/03/22 14:29:44;;;;;;;3.85;1.73;;;;;;;;;;5071767;28;20362;-62
2023/03/22 14:32:22;;;;;;;5.53;1.70;;;;;;;;;;5073842;28;20362;-62
2023/03/22 14:34:50;;;;;;;3.30;1.65;;;;;;;;;;5073270;28;20044;-60
2023/03/22 14:37:17;;;;;;;3.05;1.40;;;;;;;;;;5072590;28;20036;-61
2023/03/22 14:39:45;;;;;;;3.70;1.85;;;;;;;;;;5072771;28;20028;-61
2023/03/22 14:42:27;;;;;;;2.83;1.35;;;;;;;;;;5073561;28;20362;-61
2023/03/22 14:44:58;;;;;;;3.42;1.63;;;;;;;;;;5073023;28;20055;-61
2023/03/22 14:47:32;;;;;;;;;;;;;;;;;;5074230;28;20036;-61
2023/03/22 14:49:59;;;;;;;3.72;1.60;;;;;;;;;;5072830;28;20433;-61
2023/03/22 14:52:31;;;;;;;4.43;1.50;;;;;;;;;;5073320;28;20058;-61
2023/03/22 14:54:58;;;;;;;8.70;2.30;;;;;;;;;;5071250;28;20032;-61
2023/03/22 14:57:53;;;;;;;5.05;1.65;;;;;;;;;;5073455;28;20044;-61